sensor_id;sensor_type;location;lat;lon;timestamp;P1;durP1;ratioP1;P2;durP2;ratioP2
75993;SDS011;64680;53.800;9.988;2023-08-01T00:00:38;1.70;;;1.25;;
75993;SDS011;64680;53.800;9.988;2023-08-01T00:03:04;1.60;;;1.23;;
75993;SDS011;64680;53.800;9.988;2023-08-01T00:05:29;1.70;;;1.13;;
75993;SDS011;64680;53.800;9.988;2023-08-01T00:07:55;3.83;;;1.55;;
75993;SDS011;64680;53.800;9.988;2023-08-01T00:10:20;1.50;;;1.08;;
75993;SDS011;64680;53.800;9.988;2023-08-01T00:12:46;2.25;;;1.10;;
75993;SDS011;64680;53.800;9.988;2023-08-01T00:15:12;1.67;;;1.58;;
75993;SDS011;64680;53.800;9.988;2023-08-01T00:17:37;1.50;;;1.00;;
75993;SDS011;64680;53.800;9.988;2023-08-01T00:20:03;1.30;;;1.00;;
75993;SDS011;64680;53.800;9.988;2023-08-01T00:22:29;1.90;;;1.00;;
75993;SDS011;64680;53.800;9.988;2023-08-01T00:24:55;1.85;;;1.00;;
75993;SDS011;64680;53.800;9.988;2023-08-01T00:27:21;2.78;;;1.30;;
75993;SDS011;64680;53.800;9.988;2023-08-01T00:29:46;1.58;;;1.27;;
75993;SDS011;64680;53.800;9.988;2023-08-01T00:32:12;1.73;;;1.10;;
75993;SDS011;64680;53.800;9.988;2023-08-01T00:34:38;2.85;;;1.52;;
75993;SDS011;64680;53.800;9.988;2023-08-01T00:37:04;3.75;;;1.80;;
75993;SDS011;64680;53.800;9.988;2023-08-01T00:39:30;2.53;;;2.25;;
75993;SDS011;64680;53.800;9.988;2023-08-01T00:41:56;3.13;;;1.88;;
75993;SDS011;64680;53.800;9.988;2023-08-01T00:44:22;3.55;;;1.90;;
75993;SDS011;64680;53.800;9.988;2023-08-01T00:46:48;2.95;;;2.05;;
75993;SDS011;64680;53.800;9.988;2023-08-01T00:49:14;3.08;;;2.05;;
75993;SDS011;64680;53.800;9.988;2023-08-01T00:51:41;4.80;;;3.22;;
75993;SDS011;64680;53.800;9.988;2023-08-01T00:54:07;2.55;;;1.83;;
75993;SDS011;64680;53.800;9.988;2023-08-01T00:56:33;2.90;;;1.83;;
75993;SDS011;64680;53.800;9.988;2023-08-01T00:59:00;2.70;;;1.63;;
75993;SDS011;64680;53.800;9.988;2023-08-01T01:01:25;2.60;;;1.65;;
75993;SDS011;64680;53.800;9.988;2023-08-01T01:03:51;2.08;;;1.38;;
75993;SDS011;64680;53.800;9.988;2023-08-01T01:06:20;1.75;;;1.35;;
75993;SDS011;64680;53.800;9.988;2023-08-01T01:08:49;2.92;;;1.90;;
75993;SDS011;64680;53.800;9.988;2023-08-01T01:11:15;2.88;;;1.48;;
75993;SDS011;64680;53.800;9.988;2023-08-01T01:13:41;2.22;;;1.77;;
75993;SDS011;64680;53.800;9.988;2023-08-01T01:16:06;2.35;;;1.75;;
75993;SDS011;64680;53.800;9.988;2023-08-01T01:18:32;4.15;;;2.00;;
75993;SDS011;64680;53.800;9.988;2023-08-01T01:20:57;2.53;;;1.45;;
75993;SDS011;64680;53.800;9.988;2023-08-01T01:23:23;2.42;;;1.30;;
75993;SDS011;64680;53.800;9.988;2023-08-01T01:25:50;4.25;;;1.92;;
75993;SDS011;64680;53.800;9.988;2023-08-01T01:28:17;2.10;;;1.33;;
75993;SDS011;64680;53.800;9.988;2023-08-01T01:30:44;1.60;;;1.27;;
75993;SDS011;64680;53.800;9.988;2023-08-01T01:33:10;1.80;;;0.85;;
75993;SDS011;64680;53.800;9.988;2023-08-01T01:35:37;2.30;;;1.00;;
75993;SDS011;64680;53.800;9.988;2023-08-01T01:38:03;2.22;;;1.35;;
75993;SDS011;64680;53.800;9.988;2023-08-01T01:40:30;1.45;;;1.00;;
75993;SDS011;64680;53.800;9.988;2023-08-01T01:42:56;2.80;;;1.30;;
75993;SDS011;64680;53.800;9.988;2023-08-01T01:45:22;2.28;;;1.33;;
75993;SDS011;64680;53.800;9.988;2023-08-01T01:47:47;3.50;;;1.35;;
75993;SDS011;64680;53.800;9.988;2023-08-01T01:50:13;2.47;;;1.60;;
75993;SDS011;64680;53.800;9.988;2023-08-01T01:52:39;2.17;;;1.33;;
75993;SDS011;64680;53.800;9.988;2023-08-01T01:55:04;2.60;;;1.33;;
75993;SDS011;64680;53.800;9.988;2023-08-01T01:57:30;2.47;;;1.42;;
75993;SDS011;64680;53.800;9.988;2023-08-01T01:59:56;2.65;;;1.60;;
75993;SDS011;64680;53.800;9.988;2023-08-01T02:02:21;10.43;;;2.70;;
75993;SDS011;64680;53.800;9.988;2023-08-01T02:04:47;3.65;;;2.25;;
75993;SDS011;64680;53.800;9.988;2023-08-01T02:07:14;3.97;;;2.75;;
75993;SDS011;64680;53.800;9.988;2023-08-01T02:09:40;3.42;;;2.42;;
75993;SDS011;64680;53.800;9.988;2023-08-01T02:12:06;3.22;;;2.30;;
75993;SDS011;64680;53.800;9.988;2023-08-01T02:14:34;5.05;;;3.10;;
75993;SDS011;64680;53.800;9.988;2023-08-01T02:40:25;11.82;;;7.00;;
75993;SDS011;64680;53.800;9.988;2023-08-01T02:42:51;12.65;;;6.40;;
75993;SDS011;64680;53.800;9.988;2023-08-01T02:45:17;8.75;;;5.30;;
75993;SDS011;64680;53.800;9.988;2023-08-01T02:47:42;8.55;;;5.97;;
75993;SDS011;64680;53.800;9.988;2023-08-01T02:50:08;12.05;;;7.05;;
75993;SDS011;64680;53.800;9.988;2023-08-01T02:52:34;9.45;;;5.80;;
75993;SDS011;64680;53.800;9.988;2023-08-01T02:55:00;13.55;;;7.78;;
75993;SDS011;64680;53.800;9.988;2023-08-01T02:57:25;10.63;;;7.60;;
75993;SDS011;64680;53.800;9.988;2023-08-01T02:59:51;13.00;;;7.63;;
75993;SDS011;64680;53.800;9.988;2023-08-01T03:02:16;14.02;;;8.57;;
75993;SDS011;64680;53.800;9.988;2023-08-01T03:04:42;14.95;;;8.82;;
75993;SDS011;64680;53.800;9.988;2023-08-01T03:07:08;16.73;;;9.35;;
75993;SDS011;64680;53.800;9.988;2023-08-01T03:09:33;14.65;;;8.02;;
75993;SDS011;64680;53.800;9.988;2023-08-01T03:11:59;15.60;;;9.68;;
75993;SDS011;64680;53.800;9.988;2023-08-01T03:14:24;17.50;;;10.60;;
75993;SDS011;64680;53.800;9.988;2023-08-01T03:16:50;15.02;;;9.55;;
75993;SDS011;64680;53.800;9.988;2023-08-01T03:19:16;15.75;;;9.43;;
75993;SDS011;64680;53.800;9.988;2023-08-01T03:21:41;14.05;;;10.40;;
75993;SDS011;64680;53.800;9.988;2023-08-01T03:24:07;14.52;;;9.60;;
75993;SDS011;64680;53.800;9.988;2023-08-01T03:26:34;22.08;;;12.07;;
75993;SDS011;64680;53.800;9.988;2023-08-01T03:29:00;23.60;;;12.50;;
75993;SDS011;64680;53.800;9.988;2023-08-01T03:31:26;15.70;;;10.45;;
75993;SDS011;64680;53.800;9.988;2023-08-01T03:33:52;15.23;;;10.48;;
75993;SDS011;64680;53.800;9.988;2023-08-01T03:36:18;16.75;;;10.60;;
75993;SDS011;64680;53.800;9.988;2023-08-01T03:38:43;17.95;;;11.68;;
75993;SDS011;64680;53.800;9.988;2023-08-01T03:41:09;22.63;;;13.75;;
75993;SDS011;64680;53.800;9.988;2023-08-01T03:43:34;23.70;;;13.85;;
75993;SDS011;64680;53.800;9.988;2023-08-01T03:46:00;25.40;;;14.30;;
75993;SDS011;64680;53.800;9.988;2023-08-01T03:48:26;18.02;;;11.40;;
75993;SDS011;64680;53.800;9.988;2023-08-01T03:50:51;22.25;;;12.73;;
75993;SDS011;64680;53.800;9.988;2023-08-01T03:53:17;18.10;;;11.68;;
75993;SDS011;64680;53.800;9.988;2023-08-01T03:55:43;20.50;;;12.15;;
75993;SDS011;64680;53.800;9.988;2023-08-01T03:58:09;17.17;;;11.05;;
75993;SDS011;64680;53.800;9.988;2023-08-01T04:00:35;20.55;;;11.95;;
75993;SDS011;64680;53.800;9.988;2023-08-01T04:03:00;23.90;;;13.82;;
75993;SDS011;64680;53.800;9.988;2023-08-01T04:05:27;20.63;;;12.60;;
75993;SDS011;64680;53.800;9.988;2023-08-01T04:07:53;19.85;;;12.60;;
75993;SDS011;64680;53.800;9.988;2023-08-01T04:10:22;19.40;;;12.20;;
75993;SDS011;64680;53.800;9.988;2023-08-01T04:12:48;18.20;;;12.35;;
75993;SDS011;64680;53.800;9.988;2023-08-01T04:15:14;20.38;;;12.85;;
75993;SDS011;64680;53.800;9.988;2023-08-01T04:17:40;30.38;;;14.90;;
75993;SDS011;64680;53.800;9.988;2023-08-01T04:20:06;18.10;;;11.60;;
75993;SDS011;64680;53.800;9.988;2023-08-01T04:22:32;19.95;;;13.10;;
75993;SDS011;64680;53.800;9.988;2023-08-01T04:24:57;21.27;;;12.80;;
75993;SDS011;64680;53.800;9.988;2023-08-01T04:27:23;18.63;;;11.90;;
75993;SDS011;64680;53.800;9.988;2023-08-01T04:29:49;23.48;;;13.73;;
75993;SDS011;64680;53.800;9.988;2023-08-01T04:32:14;23.25;;;13.40;;
75993;SDS011;64680;53.800;9.988;2023-08-01T04:34:41;19.80;;;12.45;;
75993;SDS011;64680;53.800;9.988;2023-08-01T04:37:06;25.48;;;14.50;;
75993;SDS011;64680;53.800;9.988;2023-08-01T04:39:33;29.15;;;14.40;;
75993;SDS011;64680;53.800;9.988;2023-08-01T04:41:58;21.38;;;13.95;;
75993;SDS011;64680;53.800;9.988;2023-08-01T04:44:24;20.75;;;12.60;;
75993;SDS011;64680;53.800;9.988;2023-08-01T04:46:50;17.60;;;11.98;;
75993;SDS011;64680;53.800;9.988;2023-08-01T04:49:15;19.60;;;12.68;;
75993;SDS011;64680;53.800;9.988;2023-08-01T04:51:41;20.02;;;12.23;;
75993;SDS011;64680;53.800;9.988;2023-08-01T04:54:06;23.23;;;13.98;;
75993;SDS011;64680;53.800;9.988;2023-08-01T04:56:32;28.55;;;15.02;;
75993;SDS011;64680;53.800;9.988;2023-08-01T04:58:57;24.35;;;13.57;;
75993;SDS011;64680;53.800;9.988;2023-08-01T05:01:23;20.63;;;12.57;;
75993;SDS011;64680;53.800;9.988;2023-08-01T05:03:49;21.23;;;13.57;;
75993;SDS011;64680;53.800;9.988;2023-08-01T05:06:14;18.35;;;11.35;;
75993;SDS011;64680;53.800;9.988;2023-08-01T05:08:40;23.05;;;14.00;;
75993;SDS011;64680;53.800;9.988;2023-08-01T05:11:05;16.88;;;11.43;;
75993;SDS011;64680;53.800;9.988;2023-08-01T05:13:31;17.83;;;11.38;;
75993;SDS011;64680;53.800;9.988;2023-08-01T05:15:57;15.43;;;10.25;;
75993;SDS011;64680;53.800;9.988;2023-08-01T05:18:22;23.83;;;13.27;;
75993;SDS011;64680;53.800;9.988;2023-08-01T05:20:48;17.88;;;10.65;;
75993;SDS011;64680;53.800;9.988;2023-08-01T05:23:14;15.00;;;11.00;;
75993;SDS011;64680;53.800;9.988;2023-08-01T05:25:39;23.02;;;13.50;;
75993;SDS011;64680;53.800;9.988;2023-08-01T05:28:05;17.05;;;10.82;;
75993;SDS011;64680;53.800;9.988;2023-08-01T05:30:30;15.73;;;10.70;;
75993;SDS011;64680;53.800;9.988;2023-08-01T05:32:56;16.05;;;9.88;;
75993;SDS011;64680;53.800;9.988;2023-08-01T05:35:22;14.68;;;10.02;;
75993;SDS011;64680;53.800;9.988;2023-08-01T05:37:47;20.00;;;10.63;;
75993;SDS011;64680;53.800;9.988;2023-08-01T05:40:13;14.77;;;8.82;;
75993;SDS011;64680;53.800;9.988;2023-08-01T05:42:39;17.23;;;9.82;;
75993;SDS011;64680;53.800;9.988;2023-08-01T05:45:04;19.20;;;10.63;;
75993;SDS011;64680;53.800;9.988;2023-08-01T05:47:30;18.27;;;9.55;;
75993;SDS011;64680;53.800;9.988;2023-08-01T05:49:56;16.15;;;9.48;;
75993;SDS011;64680;53.800;9.988;2023-08-01T05:52:22;15.75;;;8.85;;
75993;SDS011;64680;53.800;9.988;2023-08-01T05:54:47;19.65;;;9.95;;
75993;SDS011;64680;53.800;9.988;2023-08-01T05:57:13;15.13;;;8.18;;
75993;SDS011;64680;53.800;9.988;2023-08-01T05:59:39;21.15;;;10.05;;
75993;SDS011;64680;53.800;9.988;2023-08-01T06:02:05;18.90;;;10.70;;
75993;SDS011;64680;53.800;9.988;2023-08-01T06:04:31;13.13;;;7.88;;
75993;SDS011;64680;53.800;9.988;2023-08-01T06:06:57;12.68;;;7.47;;
75993;SDS011;64680;53.800;9.988;2023-08-01T06:09:22;14.48;;;9.27;;
75993;SDS011;64680;53.800;9.988;2023-08-01T06:11:48;15.05;;;8.57;;
75993;SDS011;64680;53.800;9.988;2023-08-01T06:14:14;15.82;;;9.75;;
75993;SDS011;64680;53.800;9.988;2023-08-01T06:16:40;12.07;;;7.88;;
75993;SDS011;64680;53.800;9.988;2023-08-01T06:19:06;10.20;;;7.55;;
75993;SDS011;64680;53.800;9.988;2023-08-01T06:21:31;12.00;;;7.65;;
75993;SDS011;64680;53.800;9.988;2023-08-01T06:23:57;12.57;;;6.82;;
75993;SDS011;64680;53.800;9.988;2023-08-01T06:26:22;16.27;;;8.32;;
75993;SDS011;64680;53.800;9.988;2023-08-01T06:28:48;15.43;;;7.65;;
75993;SDS011;64680;53.800;9.988;2023-08-01T06:31:14;11.93;;;6.95;;
75993;SDS011;64680;53.800;9.988;2023-08-01T06:33:39;10.63;;;6.88;;
75993;SDS011;64680;53.800;9.988;2023-08-01T06:36:06;11.80;;;5.78;;
75993;SDS011;64680;53.800;9.988;2023-08-01T06:38:31;11.73;;;6.63;;
75993;SDS011;64680;53.800;9.988;2023-08-01T06:40:57;9.45;;;5.88;;
75993;SDS011;64680;53.800;9.988;2023-08-01T06:43:22;9.65;;;5.07;;
75993;SDS011;64680;53.800;9.988;2023-08-01T06:45:49;9.95;;;5.32;;
75993;SDS011;64680;53.800;9.988;2023-08-01T06:48:15;12.77;;;6.35;;
75993;SDS011;64680;53.800;9.988;2023-08-01T06:50:41;13.55;;;5.82;;
75993;SDS011;64680;53.800;9.988;2023-08-01T06:53:06;10.27;;;5.32;;
75993;SDS011;64680;53.800;9.988;2023-08-01T06:55:33;9.75;;;5.40;;
75993;SDS011;64680;53.800;9.988;2023-08-01T06:57:59;9.45;;;5.95;;
75993;SDS011;64680;53.800;9.988;2023-08-01T07:00:25;8.85;;;5.30;;
75993;SDS011;64680;53.800;9.988;2023-08-01T07:02:50;6.95;;;4.55;;
75993;SDS011;64680;53.800;9.988;2023-08-01T07:05:16;8.57;;;5.70;;
75993;SDS011;64680;53.800;9.988;2023-08-01T07:07:41;8.65;;;4.90;;
75993;SDS011;64680;53.800;9.988;2023-08-01T07:10:07;10.95;;;5.45;;
75993;SDS011;64680;53.800;9.988;2023-08-01T07:12:33;9.55;;;5.13;;
75993;SDS011;64680;53.800;9.988;2023-08-01T07:14:59;10.02;;;5.07;;
75993;SDS011;64680;53.800;9.988;2023-08-01T07:17:24;7.65;;;4.85;;
75993;SDS011;64680;53.800;9.988;2023-08-01T07:19:50;5.85;;;3.50;;
75993;SDS011;64680;53.800;9.988;2023-08-01T07:22:15;9.40;;;4.18;;
75993;SDS011;64680;53.800;9.988;2023-08-01T07:24:41;9.63;;;4.57;;
75993;SDS011;64680;53.800;9.988;2023-08-01T07:27:07;10.27;;;3.88;;
75993;SDS011;64680;53.800;9.988;2023-08-01T07:29:32;9.43;;;4.00;;
75993;SDS011;64680;53.800;9.988;2023-08-01T07:31:58;6.93;;;3.92;;
75993;SDS011;64680;53.800;9.988;2023-08-01T07:34:23;9.32;;;4.40;;
75993;SDS011;64680;53.800;9.988;2023-08-01T07:36:49;8.65;;;3.80;;
75993;SDS011;64680;53.800;9.988;2023-08-01T07:39:15;10.32;;;4.55;;
75993;SDS011;64680;53.800;9.988;2023-08-01T07:41:41;8.60;;;4.80;;
75993;SDS011;64680;53.800;9.988;2023-08-01T07:44:07;9.70;;;4.57;;
75993;SDS011;64680;53.800;9.988;2023-08-01T07:46:32;6.95;;;3.88;;
75993;SDS011;64680;53.800;9.988;2023-08-01T07:48:58;9.32;;;5.07;;
75993;SDS011;64680;53.800;9.988;2023-08-01T07:51:27;9.50;;;4.60;;
75993;SDS011;64680;53.800;9.988;2023-08-01T07:53:53;9.40;;;4.45;;
75993;SDS011;64680;53.800;9.988;2023-08-01T07:56:19;5.53;;;3.70;;
75993;SDS011;64680;53.800;9.988;2023-08-01T07:58:45;10.05;;;4.72;;
75993;SDS011;64680;53.800;9.988;2023-08-01T08:01:11;7.97;;;4.40;;
75993;SDS011;64680;53.800;9.988;2023-08-01T08:03:36;7.72;;;4.07;;
75993;SDS011;64680;53.800;9.988;2023-08-01T08:06:02;9.07;;;3.80;;
75993;SDS011;64680;53.800;9.988;2023-08-01T08:08:29;9.60;;;4.40;;
75993;SDS011;64680;53.800;9.988;2023-08-01T08:10:55;10.20;;;4.20;;
75993;SDS011;64680;53.800;9.988;2023-08-01T08:13:20;10.88;;;3.92;;
75993;SDS011;64680;53.800;9.988;2023-08-01T08:15:46;8.50;;;3.60;;
75993;SDS011;64680;53.800;9.988;2023-08-01T08:18:12;6.65;;;3.53;;
75993;SDS011;64680;53.800;9.988;2023-08-01T08:20:42;8.93;;;3.97;;
75993;SDS011;64680;53.800;9.988;2023-08-01T08:23:09;6.63;;;3.35;;
75993;SDS011;64680;53.800;9.988;2023-08-01T08:25:35;7.50;;;3.85;;
75993;SDS011;64680;53.800;9.988;2023-08-01T08:28:02;9.85;;;4.13;;
75993;SDS011;64680;53.800;9.988;2023-08-01T08:30:28;8.05;;;4.03;;
75993;SDS011;64680;53.800;9.988;2023-08-01T08:32:53;8.85;;;3.33;;
75993;SDS011;64680;53.800;9.988;2023-08-01T08:35:19;3.63;;;2.83;;
75993;SDS011;64680;53.800;9.988;2023-08-01T08:37:45;8.95;;;3.35;;
75993;SDS011;64680;53.800;9.988;2023-08-01T08:40:12;3.83;;;2.50;;
75993;SDS011;64680;53.800;9.988;2023-08-01T08:45:04;8.57;;;3.20;;
75993;SDS011;64680;53.800;9.988;2023-08-01T08:47:31;6.32;;;2.95;;
75993;SDS011;64680;53.800;9.988;2023-08-01T08:50:01;6.45;;;3.40;;
75993;SDS011;64680;53.800;9.988;2023-08-01T08:52:27;3.58;;;2.80;;
75993;SDS011;64680;53.800;9.988;2023-08-01T08:54:53;5.93;;;2.60;;
75993;SDS011;64680;53.800;9.988;2023-08-01T08:57:20;6.28;;;2.70;;
75993;SDS011;64680;53.800;9.988;2023-08-01T08:59:46;4.55;;;2.42;;
75993;SDS011;64680;53.800;9.988;2023-08-01T09:02:13;4.95;;;2.75;;
75993;SDS011;64680;53.800;9.988;2023-08-01T09:04:40;5.28;;;2.42;;
75993;SDS011;64680;53.800;9.988;2023-08-01T09:07:07;4.03;;;1.02;;
75993;SDS011;64680;53.800;9.988;2023-08-01T09:09:36;9.48;;;1.25;;
75993;SDS011;64680;53.800;9.988;2023-08-01T09:12:02;3.22;;;1.00;;
75993;SDS011;64680;53.800;9.988;2023-08-01T09:14:27;2.45;;;1.15;;
75993;SDS011;64680;53.800;9.988;2023-08-01T09:16:54;3.53;;;1.60;;
75993;SDS011;64680;53.800;9.988;2023-08-01T09:19:20;6.55;;;2.72;;
75993;SDS011;64680;53.800;9.988;2023-08-01T09:21:48;5.60;;;2.80;;
75993;SDS011;64680;53.800;9.988;2023-08-01T09:24:18;7.43;;;3.42;;
75993;SDS011;64680;53.800;9.988;2023-08-01T09:26:45;5.03;;;3.35;;
75993;SDS011;64680;53.800;9.988;2023-08-01T09:29:13;6.20;;;2.53;;
75993;SDS011;64680;53.800;9.988;2023-08-01T09:34:23;5.63;;;2.80;;
75993;SDS011;64680;53.800;9.988;2023-08-01T09:36:51;7.30;;;3.45;;
75993;SDS011;64680;53.800;9.988;2023-08-01T09:39:23;8.05;;;3.10;;
75993;SDS011;64680;53.800;9.988;2023-08-01T09:41:59;5.72;;;3.25;;
75993;SDS011;64680;53.800;9.988;2023-08-01T09:44:25;7.38;;;3.50;;
75993;SDS011;64680;53.800;9.988;2023-08-01T09:46:56;5.05;;;3.03;;
75993;SDS011;64680;53.800;9.988;2023-08-01T09:49:26;8.38;;;4.35;;
75993;SDS011;64680;53.800;9.988;2023-08-01T09:51:52;4.93;;;2.72;;
75993;SDS011;64680;53.800;9.988;2023-08-01T09:54:20;5.43;;;2.65;;
75993;SDS011;64680;53.800;9.988;2023-08-01T09:56:47;5.63;;;3.22;;
75993;SDS011;64680;53.800;9.988;2023-08-01T09:59:16;5.10;;;2.92;;
75993;SDS011;64680;53.800;9.988;2023-08-01T10:01:44;7.82;;;3.15;;
75993;SDS011;64680;53.800;9.988;2023-08-01T10:04:15;7.68;;;3.38;;
75993;SDS011;64680;53.800;9.988;2023-08-01T10:09:17;6.28;;;2.83;;
75993;SDS011;64680;53.800;9.988;2023-08-01T10:11:43;6.32;;;3.10;;
75993;SDS011;64680;53.800;9.988;2023-08-01T10:14:09;5.00;;;3.03;;
75993;SDS011;64680;53.800;9.988;2023-08-01T10:16:36;6.68;;;2.75;;
75993;SDS011;64680;53.800;9.988;2023-08-01T10:19:02;7.28;;;2.40;;
75993;SDS011;64680;53.800;9.988;2023-08-01T10:21:31;7.60;;;3.17;;
75993;SDS011;64680;53.800;9.988;2023-08-01T10:23:57;4.75;;;2.72;;
75993;SDS011;64680;53.800;9.988;2023-08-01T10:26:24;5.32;;;1.30;;
75993;SDS011;64680;53.800;9.988;2023-08-01T10:28:50;3.78;;;1.75;;
75993;SDS011;64680;53.800;9.988;2023-08-01T10:31:17;3.83;;;1.75;;
75993;SDS011;64680;53.800;9.988;2023-08-01T10:33:45;2.85;;;1.40;;
75993;SDS011;64680;53.800;9.988;2023-08-01T10:36:18;3.08;;;1.08;;
75993;SDS011;64680;53.800;9.988;2023-08-01T10:38:47;2.45;;;1.25;;
75993;SDS011;64680;53.800;9.988;2023-08-01T10:41:18;4.65;;;1.40;;
75993;SDS011;64680;53.800;9.988;2023-08-01T10:43:50;3.78;;;1.33;;
75993;SDS011;64680;53.800;9.988;2023-08-01T10:46:16;1.30;;;0.45;;
75993;SDS011;64680;53.800;9.988;2023-08-01T10:48:48;2.67;;;0.50;;
75993;SDS011;64680;53.800;9.988;2023-08-01T10:51:15;2.58;;;0.47;;
75993;SDS011;64680;53.800;9.988;2023-08-01T10:53:41;2.58;;;0.98;;
75993;SDS011;64680;53.800;9.988;2023-08-01T10:56:07;3.50;;;0.63;;
75993;SDS011;64680;53.800;9.988;2023-08-01T10:58:33;2.28;;;0.43;;
75993;SDS011;64680;53.800;9.988;2023-08-01T11:00:59;2.60;;;0.60;;
75993;SDS011;64680;53.800;9.988;2023-08-01T11:03:38;1.35;;;0.52;;
75993;SDS011;64680;53.800;9.988;2023-08-01T11:06:04;4.20;;;0.70;;
75993;SDS011;64680;53.800;9.988;2023-08-01T11:08:34;2.80;;;0.57;;
75993;SDS011;64680;53.800;9.988;2023-08-01T11:11:04;2.83;;;0.57;;
75993;SDS011;64680;53.800;9.988;2023-08-01T11:13:37;1.25;;;0.60;;
75993;SDS011;64680;53.800;9.988;2023-08-01T11:16:03;1.15;;;0.45;;
75993;SDS011;64680;53.800;9.988;2023-08-01T11:21:07;3.15;;;0.52;;
75993;SDS011;64680;53.800;9.988;2023-08-01T11:23:32;2.08;;;0.70;;
75993;SDS011;64680;53.800;9.988;2023-08-01T11:25:58;1.25;;;0.52;;
75993;SDS011;64680;53.800;9.988;2023-08-01T11:28:24;1.65;;;1.27;;
75993;SDS011;64680;53.800;9.988;2023-08-01T11:30:50;2.60;;;0.63;;
75993;SDS011;64680;53.800;9.988;2023-08-01T11:33:19;2.17;;;0.43;;
75993;SDS011;64680;53.800;9.988;2023-08-01T11:35:46;1.85;;;0.80;;
75993;SDS011;64680;53.800;9.988;2023-08-01T11:38:28;2.47;;;0.85;;
75993;SDS011;64680;53.800;9.988;2023-08-01T11:40:56;2.13;;;0.70;;
75993;SDS011;64680;53.800;9.988;2023-08-01T11:43:22;1.35;;;0.70;;
75993;SDS011;64680;53.800;9.988;2023-08-01T11:45:48;2.22;;;0.57;;
75993;SDS011;64680;53.800;9.988;2023-08-01T11:48:15;2.05;;;0.50;;
75993;SDS011;64680;53.800;9.988;2023-08-01T11:50:41;1.25;;;0.43;;
75993;SDS011;64680;53.800;9.988;2023-08-01T11:53:17;2.88;;;0.60;;
75993;SDS011;64680;53.800;9.988;2023-08-01T11:55:43;2.88;;;0.52;;
75993;SDS011;64680;53.800;9.988;2023-08-01T11:58:10;1.45;;;0.60;;
75993;SDS011;64680;53.800;9.988;2023-08-01T12:00:35;2.53;;;0.90;;
75993;SDS011;64680;53.800;9.988;2023-08-01T12:03:08;1.88;;;0.50;;
75993;SDS011;64680;53.800;9.988;2023-08-01T12:05:41;1.58;;;0.40;;
75993;SDS011;64680;53.800;9.988;2023-08-01T12:08:11;1.25;;;0.40;;
75993;SDS011;64680;53.800;9.988;2023-08-01T12:10:41;1.30;;;0.38;;
75993;SDS011;64680;53.800;9.988;2023-08-01T12:13:23;1.15;;;0.43;;
75993;SDS011;64680;53.800;9.988;2023-08-01T12:15:50;1.77;;;1.05;;
75993;SDS011;64680;53.800;9.988;2023-08-01T12:18:23;1.23;;;0.40;;
75993;SDS011;64680;53.800;9.988;2023-08-01T12:20:50;1.58;;;0.55;;
75993;SDS011;64680;53.800;9.988;2023-08-01T12:23:16;0.95;;;0.30;;
75993;SDS011;64680;53.800;9.988;2023-08-01T12:25:42;1.40;;;0.82;;
75993;SDS011;64680;53.800;9.988;2023-08-01T12:28:08;0.88;;;0.30;;
75993;SDS011;64680;53.800;9.988;2023-08-01T12:30:33;1.55;;;0.50;;
75993;SDS011;64680;53.800;9.988;2023-08-01T12:32:59;1.83;;;0.50;;
75993;SDS011;64680;53.800;9.988;2023-08-01T12:35:25;2.85;;;0.52;;
75993;SDS011;64680;53.800;9.988;2023-08-01T12:37:52;1.02;;;0.40;;
75993;SDS011;64680;53.800;9.988;2023-08-01T12:40:18;1.63;;;0.50;;
75993;SDS011;64680;53.800;9.988;2023-08-01T12:42:44;1.25;;;0.40;;
75993;SDS011;64680;53.800;9.988;2023-08-01T12:45:11;1.77;;;0.45;;
75993;SDS011;64680;53.800;9.988;2023-08-01T12:47:36;1.05;;;0.32;;
75993;SDS011;64680;53.800;9.988;2023-08-01T12:50:02;1.27;;;0.50;;
75993;SDS011;64680;53.800;9.988;2023-08-01T12:52:27;1.42;;;1.10;;
75993;SDS011;64680;53.800;9.988;2023-08-01T12:54:53;1.55;;;0.50;;
75993;SDS011;64680;53.800;9.988;2023-08-01T12:57:19;0.90;;;0.50;;
75993;SDS011;64680;53.800;9.988;2023-08-01T12:59:45;1.80;;;0.50;;
75993;SDS011;64680;53.800;9.988;2023-08-01T13:02:10;2.15;;;0.55;;
75993;SDS011;64680;53.800;9.988;2023-08-01T13:04:36;1.02;;;0.47;;
75993;SDS011;64680;53.800;9.988;2023-08-01T13:07:02;1.77;;;0.50;;
75993;SDS011;64680;53.800;9.988;2023-08-01T13:09:28;2.05;;;0.32;;
75993;SDS011;64680;53.800;9.988;2023-08-01T13:11:53;1.05;;;0.95;;
75993;SDS011;64680;53.800;9.988;2023-08-01T13:14:19;1.13;;;1.02;;
75993;SDS011;64680;53.800;9.988;2023-08-01T13:16:44;0.68;;;0.40;;
75993;SDS011;64680;53.800;9.988;2023-08-01T13:19:10;0.40;;;0.20;;
75993;SDS011;64680;53.800;9.988;2023-08-01T13:21:35;0.50;;;0.38;;
75993;SDS011;64680;53.800;9.988;2023-08-01T13:24:01;1.17;;;0.40;;
75993;SDS011;64680;53.800;9.988;2023-08-01T13:26:30;1.05;;;0.40;;
75993;SDS011;64680;53.800;9.988;2023-08-01T13:28:56;3.13;;;0.50;;
75993;SDS011;64680;53.800;9.988;2023-08-01T13:31:23;2.03;;;0.40;;
75993;SDS011;64680;53.800;9.988;2023-08-01T13:33:49;1.10;;;0.60;;
75993;SDS011;64680;53.800;9.988;2023-08-01T13:36:14;2.17;;;0.80;;
75993;SDS011;64680;53.800;9.988;2023-08-01T13:38:40;0.93;;;0.50;;
75993;SDS011;64680;53.800;9.988;2023-08-01T13:41:05;1.05;;;0.38;;
75993;SDS011;64680;53.800;9.988;2023-08-01T13:43:31;1.27;;;0.30;;
75993;SDS011;64680;53.800;9.988;2023-08-01T13:45:56;0.60;;;0.40;;
75993;SDS011;64680;53.800;9.988;2023-08-01T13:48:22;1.02;;;0.50;;
75993;SDS011;64680;53.800;9.988;2023-08-01T13:50:47;0.70;;;0.40;;
75993;SDS011;64680;53.800;9.988;2023-08-01T13:53:13;1.15;;;0.43;;
75993;SDS011;64680;53.800;9.988;2023-08-01T13:55:42;1.20;;;0.88;;
75993;SDS011;64680;53.800;9.988;2023-08-01T13:58:07;1.85;;;0.30;;
75993;SDS011;64680;53.800;9.988;2023-08-01T14:00:33;0.60;;;0.30;;
75993;SDS011;64680;53.800;9.988;2023-08-01T14:02:59;1.27;;;0.22;;
75993;SDS011;64680;53.800;9.988;2023-08-01T14:05:25;0.90;;;0.20;;
75993;SDS011;64680;53.800;9.988;2023-08-01T14:07:51;0.98;;;0.40;;
75993;SDS011;64680;53.800;9.988;2023-08-01T14:10:17;0.70;;;0.40;;
75993;SDS011;64680;53.800;9.988;2023-08-01T14:12:43;1.17;;;0.32;;
75993;SDS011;64680;53.800;9.988;2023-08-01T14:15:09;1.55;;;0.52;;
75993;SDS011;64680;53.800;9.988;2023-08-01T14:17:35;0.60;;;0.20;;
75993;SDS011;64680;53.800;9.988;2023-08-01T14:20:00;0.47;;;0.30;;
75993;SDS011;64680;53.800;9.988;2023-08-01T14:22:29;0.98;;;0.40;;
75993;SDS011;64680;53.800;9.988;2023-08-01T14:24:55;1.77;;;0.45;;
75993;SDS011;64680;53.800;9.988;2023-08-01T14:27:21;1.42;;;0.50;;
75993;SDS011;64680;53.800;9.988;2023-08-01T14:29:47;1.15;;;0.40;;
75993;SDS011;64680;53.800;9.988;2023-08-01T14:32:13;2.70;;;0.43;;
75993;SDS011;64680;53.800;9.988;2023-08-01T14:34:41;0.82;;;0.30;;
75993;SDS011;64680;53.800;9.988;2023-08-01T14:37:06;1.35;;;0.60;;
75993;SDS011;64680;53.800;9.988;2023-08-01T14:39:32;1.17;;;0.20;;
75993;SDS011;64680;53.800;9.988;2023-08-01T14:41:58;4.53;;;0.47;;
75993;SDS011;64680;53.800;9.988;2023-08-01T14:44:23;1.40;;;0.35;;
75993;SDS011;64680;53.800;9.988;2023-08-01T14:46:49;1.33;;;0.35;;
75993;SDS011;64680;53.800;9.988;2023-08-01T14:49:15;0.20;;;0.20;;
75993;SDS011;64680;53.800;9.988;2023-08-01T14:51:42;0.65;;;0.35;;
75993;SDS011;64680;53.800;9.988;2023-08-01T14:54:08;0.95;;;0.30;;
75993;SDS011;64680;53.800;9.988;2023-08-01T14:56:33;1.83;;;0.35;;
75993;SDS011;64680;53.800;9.988;2023-08-01T14:58:59;1.23;;;0.50;;
75993;SDS011;64680;53.800;9.988;2023-08-01T15:01:25;1.25;;;0.40;;
75993;SDS011;64680;53.800;9.988;2023-08-01T15:03:50;1.27;;;0.60;;
75993;SDS011;64680;53.800;9.988;2023-08-01T15:06:16;1.70;;;0.60;;
75993;SDS011;64680;53.800;9.988;2023-08-01T15:08:41;2.63;;;0.57;;